Al Kut, Iraq
Current Conditions -  °F | °C
As of 2:00 AM on Sunday 21 Dec 2014 (Local Time) from OICI Reporting Station
Broken Clouds Broken Clouds  
Wind Chill: 42°   Ceiling: 8000
Heat Index: 45°   Visibility: 5mi
Dew Point: 39°   Wind: 5mph
Humidity: 81%   Direction: 120°ESE
Pressure: 30.06"   Gusts: NA
Location:  32.5°N, 45.82°E
Report Text: OICI 202300Z 12004KT 8000 SCT040 BKN080 07/04 Q1018 A3008
Loading
Personal Weather Stations






























Interactive Weather Map New forecast layout! Learn more

10-Day Weather Forecast

Advertisements
Track Severe Weather on mobile